createdAt,value
2023-05-22T00:01:38.557Z,12.88
2023-05-22T00:04:24.750Z,12.83
2023-05-22T00:06:57.751Z,12.97
2023-05-22T00:09:52.842Z,13.10
2023-05-22T00:15:15.680Z,12.94
2023-05-22T00:17:46.630Z,13.05
2023-05-22T00:20:27.061Z,12.94
2023-05-22T00:22:57.830Z,12.85
2023-05-22T00:25:31.899Z,12.67
2023-05-22T00:28:04.346Z,12.71
2023-05-22T00:30:45.925Z,12.61
2023-05-22T00:33:27.413Z,12.63
2023-05-22T00:36:10.128Z,12.58
2023-05-22T00:39:03.186Z,12.57
2023-05-22T00:41:41.576Z,12.70
2023-05-22T00:47:23.753Z,12.43
2023-05-22T00:50:11.446Z,12.66
2023-05-22T00:52:56.311Z,12.42
2023-05-22T00:55:26.705Z,12.62
2023-05-22T01:01:25.992Z,12.69
2023-05-22T01:04:41.381Z,12.56
2023-05-22T01:07:24.499Z,12.79
2023-05-22T01:09:59.773Z,12.56
2023-05-22T01:13:25.499Z,12.84
2023-05-22T01:20:09.731Z,12.81
2023-05-22T01:23:02.972Z,12.67
2023-05-22T01:26:06.135Z,12.81
2023-05-22T01:28:51.632Z,12.81
2023-05-22T01:31:38.997Z,12.80
2023-05-22T01:34:52.493Z,12.78
2023-05-22T01:37:24.809Z,12.57
2023-05-22T01:42:43.086Z,12.58
2023-05-22T01:45:37.787Z,12.72
2023-05-22T01:48:14.055Z,12.63
2023-05-22T01:50:57.881Z,12.81
2023-05-22T01:53:51.600Z,12.84
2023-05-22T01:56:35.539Z,12.73
2023-05-22T01:59:43.758Z,12.93
2023-05-22T02:02:19.485Z,12.81
2023-05-22T02:04:54.702Z,12.91
2023-05-22T02:07:25.295Z,12.75
2023-05-22T02:10:52.276Z,13.07
2023-05-22T02:13:30.513Z,12.88
2023-05-22T02:16:09.868Z,13.08
2023-05-22T02:18:38.564Z,13.17
2023-05-22T02:21:33.907Z,12.90
2023-05-22T02:24:07.162Z,13.05
2023-05-22T02:30:05.811Z,13.09
2023-05-22T02:32:42.091Z,13.07
2023-05-22T02:39:17.345Z,13.34
2023-05-22T02:44:42.288Z,13.23
2023-05-22T02:47:23.991Z,13.27
2023-05-22T02:50:02.991Z,13.21
2023-05-22T02:52:42.007Z,13.49
2023-05-22T02:55:38.110Z,13.48
2023-05-22T03:01:31.005Z,13.46
2023-05-22T03:04:01.069Z,13.68
2023-05-22T03:06:40.328Z,13.60
2023-05-22T03:09:25.423Z,13.71
2023-05-22T03:12:01.998Z,13.68
2023-05-22T03:14:55.760Z,13.80
2023-05-22T03:17:49.295Z,13.93
2023-05-22T03:20:30.194Z,14.00
2023-05-22T03:23:08.604Z,14.15
2023-05-22T03:26:08.221Z,14.41
2023-05-22T03:28:47.275Z,14.27
2023-05-22T03:31:42.732Z,14.39
2023-05-22T03:34:34.962Z,14.34
2023-05-22T03:40:06.242Z,14.49
2023-05-22T03:42:45.162Z,14.60
2023-05-22T03:45:31.792Z,15.00
2023-05-22T03:47:59.706Z,14.90
2023-05-22T03:50:27.312Z,15.04
2023-05-22T03:58:34.969Z,15.30
2023-05-22T04:01:28.300Z,15.46
2023-05-22T04:04:01.163Z,15.67
2023-05-22T04:06:33.277Z,15.66
2023-05-22T04:09:04.940Z,15.85
2023-05-22T04:17:57.165Z,16.43
2023-05-22T04:21:08.051Z,16.56
2023-05-22T04:23:51.492Z,16.83
2023-05-22T04:26:26.373Z,16.80
2023-05-22T04:28:57.262Z,16.92
2023-05-22T04:31:29.279Z,17.26
2023-05-22T04:34:41.492Z,17.22
2023-05-22T04:37:15.591Z,17.40
2023-05-22T04:39:54.997Z,17.36
2023-05-22T04:43:05.125Z,17.24
2023-05-22T04:45:49.482Z,17.07
2023-05-22T04:48:28.300Z,17.42
2023-05-22T04:51:35.497Z,17.68
2023-05-22T04:54:33.063Z,17.65
2023-05-22T04:57:32.220Z,17.49
2023-05-22T05:00:33.261Z,17.59
2023-05-22T05:03:35.134Z,17.86
2023-05-22T05:06:14.598Z,18.20
2023-05-22T05:08:52.277Z,18.56
2023-05-22T05:11:52.114Z,18.92
2023-05-22T05:14:53.833Z,19.10
2023-05-22T05:17:33.465Z,19.34
2023-05-22T05:20:16.640Z,19.11
2023-05-22T05:23:01.519Z,19.22
2023-05-22T05:26:05.414Z,18.90
2023-05-22T05:28:45.565Z,19.06
2023-05-22T05:32:01.904Z,19.39
2023-05-22T05:37:44.076Z,19.58
2023-05-22T05:40:29.212Z,19.24
2023-05-22T05:46:33.320Z,18.88
2023-05-22T05:49:35.995Z,18.75
2023-05-22T05:53:10.770Z,19.00
2023-05-22T05:55:42.888Z,19.23
2023-05-22T05:58:13.816Z,19.01
2023-05-22T06:00:53.499Z,18.88
2023-05-22T06:03:24.160Z,18.94
2023-05-22T06:05:58.365Z,19.04
2023-05-22T06:08:29.819Z,19.21
2023-05-22T06:11:02.261Z,19.40
2023-05-22T06:13:45.857Z,19.26
2023-05-22T06:16:17.259Z,19.18
2023-05-22T06:18:51.967Z,19.63
2023-05-22T06:21:29.542Z,19.96
2023-05-22T06:23:57.020Z,20.50
2023-05-22T06:26:26.611Z,20.34
2023-05-22T06:28:55.550Z,20.51
2023-05-22T06:31:31.040Z,20.65
2023-05-22T06:34:11.140Z,20.96
2023-05-22T06:36:38.873Z,21.45
2023-05-22T06:39:07.245Z,21.42
2023-05-22T06:41:37.682Z,21.50
2023-05-22T06:44:17.135Z,21.74
2023-05-22T06:49:58.217Z,22.21
2023-05-22T06:52:33.031Z,22.21
2023-05-22T06:58:20.137Z,22.02
2023-05-22T07:08:46.651Z,22.31
2023-05-22T07:12:01.038Z,22.26
2023-05-22T07:14:35.538Z,22.50
2023-05-22T07:17:10.111Z,22.61
2023-05-22T07:19:37.713Z,23.34
2023-05-22T07:22:07.809Z,23.56
2023-05-22T07:24:58.156Z,23.93
2023-05-22T07:27:38.509Z,24.34
2023-05-22T07:30:09.161Z,24.45
2023-05-22T07:32:49.285Z,24.45
2023-05-22T07:35:24.129Z,24.05
2023-05-22T07:37:52.596Z,24.21
2023-05-22T07:40:25.747Z,24.26
2023-05-22T07:43:04.081Z,24.39
2023-05-22T07:45:38.890Z,24.24
2023-05-22T07:48:50.310Z,24.36
2023-05-22T07:51:09.119Z,24.70
2023-05-22T07:53:48.170Z,25.33
2023-05-22T08:00:11.529Z,24.79
2023-05-22T08:14:12.590Z,26.11
2023-05-22T08:17:05.843Z,26.86
2023-05-22T08:24:14.874Z,26.62
2023-05-22T08:26:58.422Z,27.17
2023-05-22T08:29:59.804Z,28.62
2023-05-22T08:33:13.639Z,30.65
2023-05-22T08:47:49.049Z,37.56
2023-05-22T09:12:58.058Z,38.76
2023-05-22T09:18:54.769Z,40.61
2023-05-22T09:22:13.546Z,39.44
2023-05-22T09:25:46.150Z,41.52
2023-05-22T09:37:09.010Z,44.98
2023-05-22T09:40:01.896Z,43.71
2023-05-22T09:47:59.406Z,41.33
2023-05-22T10:19:31.203Z,40.35
2023-05-22T10:25:57.186Z,40.82
2023-05-22T10:29:09.043Z,39.65
2023-05-22T10:57:34.845Z,39.80
2023-05-22T13:18:33.156Z,31.38
2023-05-22T15:00:31.181Z,24.78
2023-05-22T15:56:02.945Z,24.31
2023-05-22T16:06:41.881Z,24.03
2023-05-22T16:28:13.987Z,23.41
2023-05-22T16:53:48.690Z,22.41
2023-05-22T18:44:05.392Z,19.33
2023-05-22T19:47:01.607Z,18.30
2023-05-22T20:25:00.822Z,17.45
2023-05-22T20:27:29.029Z,17.56
2023-05-22T20:29:59.967Z,17.54
2023-05-22T20:50:41.895Z,17.35
2023-05-22T21:07:23.577Z,16.90
2023-05-22T21:09:54.321Z,17.12
2023-05-22T21:23:24.955Z,16.70
2023-05-22T21:29:28.143Z,16.60
2023-05-22T21:31:56.340Z,16.55
2023-05-22T21:34:30.831Z,16.53
2023-05-22T21:37:21.578Z,16.48
2023-05-22T21:50:23.876Z,16.57
2023-05-22T21:52:57.790Z,16.44
2023-05-22T21:55:25.948Z,16.50
2023-05-22T21:57:53.945Z,16.61
2023-05-22T22:00:30.945Z,16.59
2023-05-22T22:02:58.600Z,16.59
2023-05-22T22:09:00.598Z,16.72
2023-05-22T22:18:22.454Z,16.56
2023-05-22T22:38:57.776Z,16.45
2023-05-22T22:41:26.519Z,16.32
2023-05-22T22:44:03.982Z,16.36
2023-05-22T22:46:51.344Z,16.20
2023-05-22T22:49:21.967Z,16.20
2023-05-22T22:51:51.991Z,16.29
2023-05-22T23:01:32.127Z,16.29
2023-05-22T23:04:00.243Z,16.24
2023-05-22T23:06:38.579Z,16.19
2023-05-22T23:10:06.315Z,16.29
2023-05-22T23:13:08.420Z,16.30
2023-05-22T23:15:36.198Z,16.23
2023-05-22T23:18:17.157Z,16.37
2023-05-22T23:21:17.560Z,16.41
2023-05-22T23:23:46.224Z,16.25
2023-05-22T23:26:14.386Z,16.24
2023-05-22T23:28:46.987Z,16.16
2023-05-22T23:31:14.889Z,16.31
2023-05-22T23:33:43.105Z,16.22
2023-05-22T23:36:10.907Z,16.38
2023-05-22T23:38:44.472Z,16.28
2023-05-22T23:41:12.091Z,16.37
2023-05-22T23:43:44.153Z,16.44
